METAR AND TAF INFORMATION
METAR FOR LTCI
ADDS - METARS form results

(2128 UTC 26 May 2018)
Data provider http://aviationweather.gov/adds/metars/
 
METAR text: LTCI 262050Z 09004KT 9999 FEW040 12/08 Q1021 NOSIG
Conditions at: LTCI (VAN , TR) observed 2050 UTC 26 May 2018
Temperature: 12.0°C (54°F)
Dewpoint: 8.0°C (46°F) [RH = 76%]
Pressure (altimeter): 30.15 inches Hg (1021.0 mb)
Winds: from the E (90 degrees) at 5 MPH (4 knots; 2.1 m/s)
Visibility: 6 or more miles (10+ km)
Ceiling: at least 12,000 feet AGL
Clouds: few clouds at 4000 feet AGL
Weather: no significant weather observed at this time

 AIRPORT MAP

 RUNWAY INFORMATION
Runway 03 Runway length 9022 ft Runway width 148 ft
Runway elevation 5412 ft Runway displaced threshold 0 ft Runway heading 38
Runway 21 Runway length 9022 ft Runway width 148 ft
Runway elevation 5474 ft Runway displaced threshold 0 ft Runway heading 218

 AIRPORT FREQUENCIES
Type APP Name APP Frequency 118.1 MHZ
Type GND Name GND Frequency 121.9 MHZ
Type TWR Name TWR Frequency 118.1 MHZ

 AIRPORT NEAR NAVIGATION AIDS
Type VOR-DME Name Van Frequency 115200 KHZ
Type NDB Name Van Frequency 397 KHZ



Powered by Virtual Airlines Manager